Time;durP1;ratioP1;P1;durP2;ratioP2;P2;SDS_P1;SDS_P2;PMS_P1;PMS_P2;Temp;Humidity;BMP_temperature;BMP_pressure;BME280_temperature;BME280_humidity;BME280_pressure;Samples;Min_cycle;Max_cycle;Signal;HPM_P1;HPM_P2
2023/06/01 00:01:44;;;;;;;9.63;2.97;;;;;;;18.05;100.00;99368.34;4954993;28;20202;-77
2023/06/01 00:04:13;;;;;;;7.03;2.80;;;;;;;17.84;100.00;99373.84;5031786;28;20667;-77
2023/06/01 00:06:41;;;;;;;5.83;2.70;;;;;;;17.88;100.00;99376.13;5024571;28;20197;-77
2023/06/01 00:09:10;;;;;;;6.10;2.43;;;;;;;17.80;100.00;99378.63;4991058;28;20250;-77
2023/06/01 00:11:38;;;;;;;6.13;2.73;;;;;;;17.58;100.00;99373.50;4985118;28;20258;-77
2023/06/01 00:14:07;;;;;;;6.57;2.37;;;;;;;17.62;100.00;99374.91;4990979;28;20195;-78
2023/06/01 00:16:37;;;;;;;4.80;2.60;;;;;;;17.70;100.00;99373.25;4985925;28;20250;-77
2023/06/01 00:19:06;;;;;;;5.57;2.50;;;;;;;17.49;100.00;99368.97;4987216;28;20669;-77
2023/06/01 00:21:35;;;;;;;3.93;2.10;;;;;;;17.57;100.00;99369.97;4985311;28;20207;-77
2023/06/01 00:24:06;;;;;;;6.10;2.47;;;;;;;17.62;100.00;99375.75;4983906;28;20658;-77
2023/06/01 00:26:35;;;;;;;5.57;2.57;;;;;;;17.50;100.00;99367.97;4988261;28;20254;-77
2023/06/01 00:29:03;;;;;;;4.80;2.53;;;;;;;17.52;100.00;99376.72;5009039;28;20228;-77
2023/06/01 00:31:32;;;;;;;4.87;2.30;;;;;;;17.45;100.00;99374.56;5006041;28;20688;-77
2023/06/01 00:34:02;;;;;;;6.40;2.10;;;;;;;17.63;100.00;99369.41;5009909;28;20206;-78
2023/06/01 00:36:31;;;;;;;5.33;2.70;;;;;;;17.46;100.00;99365.53;5005624;28;20222;-78
2023/06/01 00:39:02;;;;;;;5.77;2.37;;;;;;;17.35;100.00;99376.38;4998864;28;20221;-77
2023/06/01 00:41:31;;;;;;;5.67;2.63;;;;;;;17.47;100.00;99371.78;5007179;28;20761;-77
2023/06/01 00:44:00;;;;;;;5.03;2.40;;;;;;;17.24;100.00;99375.63;5009829;28;20226;-77
2023/06/01 00:46:28;;;;;;;8.17;2.63;;;;;;;17.44;100.00;99375.56;5012844;28;20202;-77
2023/06/01 00:49:00;;;;;;;7.63;2.57;;;;;;;17.43;100.00;99371.19;5002501;28;20322;-77
2023/06/01 00:51:31;;;;;;;5.60;2.37;;;;;;;17.26;100.00;99377.19;5005404;28;20205;-77
2023/06/01 00:54:00;;;;;;;7.20;2.53;;;;;;;17.34;100.00;99380.03;5005227;28;20202;-77
2023/06/01 00:56:28;;;;;;;4.80;2.20;;;;;;;17.22;100.00;99370.41;5004653;28;20249;-77
2023/06/01 00:58:57;;;;;;;5.03;2.60;;;;;;;17.36;100.00;99372.72;5008918;28;20281;-77
2023/06/01 01:01:26;;;;;;;9.00;2.67;;;;;;;17.22;100.00;99375.78;5012537;28;20198;-77
2023/06/01 01:03:59;;;;;;;7.13;2.50;;;;;;;16.97;100.00;99376.22;5002614;28;20195;-77
2023/06/01 01:06:41;;;;;;;4.57;2.03;;;;;;;17.23;100.00;99371.25;5005366;28;20202;-77
2023/06/01 01:09:22;;;;;;;7.00;2.33;;;;;;;17.30;100.00;99381.31;5008869;28;20281;-77
2023/06/01 01:11:58;;;;;;;4.93;2.47;;;;;;;17.19;100.00;99383.22;5012685;28;20244;-77
2023/06/01 01:14:34;;;;;;;6.93;2.43;;;;;;;17.15;100.00;99375.44;5008181;28;20202;-77
2023/06/01 01:17:11;;;;;;;4.70;2.50;;;;;;;16.84;100.00;99382.63;5001996;28;20206;-77
2023/06/01 01:19:54;;;;;;;7.13;2.87;;;;;;;16.87;100.00;99385.03;5003355;28;20198;-77
2023/06/01 01:22:36;;;;;;;4.63;2.53;;;;;;;16.90;100.00;99389.28;5010717;28;20256;-77
2023/06/01 01:25:35;;;;;;;5.00;2.70;;;;;;;16.80;100.00;99391.91;5015165;28;20271;-77
2023/06/01 01:28:21;;;;;;;7.00;2.70;;;;;;;16.81;100.00;99384.72;5033097;28;20225;-77
2023/06/01 01:30:54;;;;;;;6.80;2.63;;;;;;;16.78;100.00;99384.97;5034227;28;20193;-77
2023/06/01 01:33:24;;;;;;;5.63;2.90;;;;;;;16.75;100.00;99385.25;5026470;28;20224;-77
2023/06/01 01:35:54;;;;;;;8.80;2.80;;;;;;;16.73;100.00;99377.38;5025033;28;20653;-77
2023/06/01 01:38:23;;;;;;;6.07;2.97;;;;;;;16.70;100.00;99379.47;5035590;28;20244;-77
2023/06/01 01:40:52;;;;;;;3.87;2.47;;;;;;;16.65;100.00;99376.28;5030162;28;20244;-78
2023/06/01 01:43:24;;;;;;;5.77;2.93;;;;;;;16.59;100.00;99375.81;5035218;28;20203;-77
2023/06/01 01:45:58;;;;;;;7.63;2.70;;;;;;;16.59;100.00;99370.47;5028281;28;20197;-77
2023/06/01 01:48:33;;;;;;;4.93;2.60;;;;;;;16.50;100.00;99379.31;5029790;28;20223;-78
2023/06/01 01:51:06;;;;;;;5.07;3.00;;;;;;;16.42;100.00;99367.56;4988851;28;20195;-77
2023/06/01 01:53:37;;;;;;;5.07;2.70;;;;;;;16.58;100.00;99365.25;4989458;28;20674;-78
2023/06/01 01:56:09;;;;;;;5.27;2.90;;;;;;;16.49;100.00;99371.38;4987782;28;20214;-76
2023/06/01 01:58:40;;;;;;;8.70;2.83;;;;;;;16.46;100.00;99372.50;4986627;28;20274;-77
2023/06/01 02:01:11;;;;;;;6.83;2.80;;;;;;;16.47;100.00;99368.00;4989812;28;20214;-77
2023/06/01 02:03:40;;;;;;;5.20;3.00;;;;;;;16.44;100.00;99361.09;4981635;28;20218;-77
2023/06/01 02:06:09;;;;;;;9.37;2.70;;;;;;;16.44;100.00;99363.78;4986034;28;20203;-77
2023/06/01 02:08:37;;;;;;;5.57;2.93;;;;;;;16.37;100.00;99359.91;4985826;28;20199;-77
2023/06/01 02:11:06;;;;;;;5.20;2.80;;;;;;;16.13;100.00;99353.97;4982801;28;20207;-77
2023/06/01 02:13:34;;;;;;;13.00;3.20;;;;;;;16.22;100.00;99356.72;4987371;28;20203;-78
2023/06/01 02:16:04;;;;;;;7.37;2.67;;;;;;;15.83;100.00;99358.22;5015010;28;20209;-77
2023/06/01 02:18:33;;;;;;;7.40;3.10;;;;;;;15.94;100.00;99362.69;5027031;28;20217;-77
2023/06/01 02:21:03;;;;;;;4.60;2.80;;;;;;;16.05;100.00;99362.63;5026085;28;20215;-79
2023/06/01 02:23:32;;;;;;;5.57;2.70;;;;;;;15.90;100.00;99354.03;5034580;28;20493;-77
2023/06/01 02:26:01;;;;;;;4.03;2.40;;;;;;;15.92;100.00;99356.59;5031709;28;20214;-78
2023/06/01 02:28:29;;;;;;;6.33;2.93;;;;;;;15.72;100.00;99355.56;5034695;28;20281;-77
2023/06/01 02:30:58;;;;;;;7.43;3.00;;;;;;;15.84;100.00;99353.72;5026744;28;20228;-77
2023/06/01 02:33:29;;;;;;;6.57;2.77;;;;;;;15.73;100.00;99357.28;5026316;28;20288;-77
2023/06/01 02:35:58;;;;;;;11.43;2.93;;;;;;;15.72;100.00;99355.56;5031354;28;20239;-77
2023/06/01 02:38:26;;;;;;;5.07;2.50;;;;;;;15.58;100.00;99350.47;5030410;28;20198;-77
2023/06/01 02:40:54;;;;;;;8.57;3.20;;;;;;;15.65;100.00;99351.72;5023080;28;20641;-77
2023/06/01 02:43:23;;;;;;;7.57;3.10;;;;;;;15.59;100.00;99345.00;5034262;28;20225;-77
2023/06/01 02:45:51;;;;;;;6.33;3.37;;;;;;;15.67;100.00;99350.63;5025558;28;20198;-77
2023/06/01 02:48:20;;;;;;;5.77;2.80;;;;;;;15.23;100.00;99342.66;5029885;28;20197;-77
2023/06/01 02:50:51;;;;;;;6.07;2.80;;;;;;;15.22;100.00;99346.28;5025134;28;20222;-77
2023/06/01 02:53:20;;;;;;;4.63;2.67;;;;;;;15.24;100.00;99349.69;5023206;28;20653;-77
2023/06/01 02:55:49;;;;;;;5.13;2.60;;;;;;;15.05;100.00;99339.63;5024388;28;20213;-77
2023/06/01 02:58:17;;;;;;;5.23;2.60;;;;;;;14.88;100.00;99340.97;5026544;28;20209;-77
2023/06/01 03:00:46;;;;;;;3.07;2.33;;;;;;;14.43;100.00;99340.88;5024162;28;20288;-77
2023/06/01 03:03:15;;;;;;;9.53;3.20;;;;;;;14.68;100.00;99337.22;5027046;28;20205;-77
2023/06/01 03:05:44;;;;;;;4.50;2.60;;;;;;;14.36;100.00;99342.31;5034009;28;20202;-77
2023/06/01 03:08:16;;;;;;;6.93;2.97;;;;;;;14.18;100.00;99338.38;5024937;28;20194;-77
2023/06/01 03:10:44;;;;;;;5.57;2.90;;;;;;;14.27;100.00;99345.69;5023912;28;20228;-75
2023/06/01 03:13:14;;;;;;;6.63;2.87;;;;;;;14.24;100.00;99341.44;5027118;28;20194;-77
2023/06/01 03:15:43;;;;;;;7.20;2.83;;;;;;;14.39;100.00;99338.59;5029912;28;20194;-77
2023/06/01 03:18:11;;;;;;;6.93;3.00;;;;;;;14.65;100.00;99340.09;5021178;28;20198;-77
2023/06/01 03:20:40;;;;;;;4.07;2.70;;;;;;;14.66;100.00;99335.63;5024242;28;20198;-77
2023/06/01 03:23:08;;;;;;;5.90;2.97;;;;;;;14.72;100.00;99329.81;5023697;28;20200;-77
2023/06/01 03:25:38;;;;;;;5.90;2.70;;;;;;;15.05;100.00;99337.81;5029715;28;20248;-77
2023/06/01 03:28:07;;;;;;;6.67;3.27;;;;;;;15.16;100.00;99343.16;5024552;28;20776;-77
2023/06/01 03:30:35;;;;;;;6.03;2.63;;;;;;;15.04;100.00;99329.94;5030579;28;20217;-77
2023/06/01 03:33:04;;;;;;;7.50;3.10;;;;;;;15.22;100.00;99332.94;5020223;28;20198;-77
2023/06/01 03:35:32;;;;;;;7.00;3.20;;;;;;;15.16;100.00;99337.81;5026013;28;20228;-77
2023/06/01 03:38:01;;;;;;;7.47;3.40;;;;;;;15.30;100.00;99327.84;5027979;28;20213;-77
2023/06/01 03:40:30;;;;;;;4.47;2.87;;;;;;;15.26;100.00;99332.59;5022543;28;20640;-77
2023/06/01 03:43:00;;;;;;;6.50;3.13;;;;;;;15.32;100.00;99329.41;5025191;28;20205;-77
2023/06/01 03:45:29;;;;;;;6.10;3.10;;;;;;;15.12;100.00;99331.00;5025417;28;20533;-77
2023/06/01 03:47:57;;;;;;;5.80;3.10;;;;;;;15.15;100.00;99327.25;5019323;28;20221;-77
2023/06/01 03:50:25;;;;;;;6.83;3.30;;;;;;;15.18;100.00;99327.88;5026517;28;20221;-76
2023/06/01 03:52:54;;;;;;;4.60;2.80;;;;;;;15.29;100.00;99335.00;4928609;29;20193;-77
2023/06/01 03:55:23;;;;;;;6.63;3.23;;;;;;;15.25;100.00;99341.56;4928630;29;20213;-77
2023/06/01 03:57:51;;;;;;;5.33;2.70;;;;;;;15.13;100.00;99334.53;4895635;29;20195;-77
2023/06/01 04:00:24;;;;;;;5.27;3.03;;;;;;;15.19;100.00;99339.38;4891226;29;20358;-77
2023/06/01 04:02:54;;;;;;;7.90;3.10;;;;;;;15.02;100.00;99339.88;4890659;29;20206;-77
2023/06/01 04:05:25;;;;;;;5.20;2.77;;;;;;;15.11;100.00;99339.16;4890930;29;20240;-77
2023/06/01 04:07:56;;;;;;;7.13;3.23;;;;;;;15.10;100.00;99338.31;4886501;29;20332;-77
2023/06/01 04:10:24;;;;;;;5.93;3.13;;;;;;;15.09;100.00;99338.44;4911143;28;20223;-77
2023/06/01 04:12:54;;;;;;;6.53;3.67;;;;;;;15.11;100.00;99341.81;4986177;28;20677;-77
2023/06/01 04:15:25;;;;;;;5.60;3.00;;;;;;;15.12;100.00;99346.19;4991180;28;20244;-77
2023/06/01 04:17:53;;;;;;;5.53;3.40;;;;;;;15.12;100.00;99352.34;5021717;28;20291;-77
2023/06/01 04:20:22;;;;;;;5.67;3.00;;;;;;;15.22;100.00;99339.13;5021464;28;20209;-77
2023/06/01 04:22:51;;;;;;;9.33;3.17;;;;;;;15.17;100.00;99346.69;5027413;28;20190;-77
2023/06/01 04:25:20;;;;;;;5.33;2.97;;;;;;;15.18;100.00;99335.03;5022170;28;20220;-78
2023/06/01 04:27:51;;;;;;;6.47;3.20;;;;;;;15.28;100.00;99340.47;5025234;28;20261;-77
2023/06/01 04:30:20;;;;;;;7.23;3.07;;;;;;;15.43;100.00;99334.72;5026765;28;20621;-78
2023/06/01 04:32:50;;;;;;;5.27;3.33;;;;;;;15.32;100.00;99337.41;5024477;28;20194;-77
2023/06/01 04:35:19;;;;;;;7.60;3.20;;;;;;;15.37;100.00;99347.75;5024842;28;20288;-77
2023/06/01 04:37:48;;;;;;;5.80;2.97;;;;;;;15.33;100.00;99331.09;5025145;28;20229;-77
2023/06/01 04:40:17;;;;;;;7.10;3.60;;;;;;;15.44;100.00;99339.13;4967488;28;20199;-78
2023/06/01 04:45:30;;;;;;;6.47;3.20;;;;;;;15.56;100.00;99344.44;4970393;28;20199;-78
2023/06/01 04:48:01;;;;;;;7.07;3.33;;;;;;;15.36;100.00;99349.56;4963517;28;20283;-77
2023/06/01 04:50:29;;;;;;;7.23;3.20;;;;;;;15.36;100.00;99354.91;4968936;28;20302;-77
2023/06/01 04:52:58;;;;;;;10.20;3.40;;;;;;;15.39;100.00;99351.97;4965620;28;20223;-77
2023/06/01 04:55:27;;;;;;;4.77;3.17;;;;;;;15.63;100.00;99348.31;4965845;28;20203;-77
2023/06/01 04:57:59;;;;;;;6.87;3.30;;;;;;;15.66;100.00;99348.91;4985563;28;20210;-77
2023/06/01 05:00:27;;;;;;;5.30;2.83;;;;;;;15.78;100.00;99352.41;4999431;28;20198;-77
2023/06/01 05:02:56;;;;;;;5.70;3.13;;;;;;;15.72;100.00;99353.75;5032037;28;20201;-77
2023/06/01 05:05:27;;;;;;;8.40;3.23;;;;;;;15.85;100.00;99353.59;5021900;28;20224;-77
2023/06/01 05:07:55;;;;;;;5.03;3.47;;;;;;;15.85;100.00;99358.09;5025894;28;20209;-77
2023/06/01 05:10:24;;;;;;;6.80;2.80;;;;;;;15.94;100.00;99357.34;5030140;28;20373;-77
2023/06/01 05:12:52;;;;;;;5.30;3.20;;;;;;;15.96;100.00;99355.38;5024618;28;20207;-77
2023/06/01 05:15:21;;;;;;;5.10;3.00;;;;;;;16.16;100.00;99357.22;5032202;28;20280;-77
2023/06/01 05:17:50;;;;;;;9.17;3.03;;;;;;;16.09;100.00;99355.19;5026947;28;20649;-78
2023/06/01 05:20:20;;;;;;;9.03;3.20;;;;;;;16.22;100.00;99348.72;5032828;28;20665;-77
2023/06/01 05:22:50;;;;;;;5.23;3.17;;;;;;;16.22;100.00;99353.22;5028559;28;20201;-77
2023/06/01 05:25:19;;;;;;;7.97;3.60;;;;;;;16.24;100.00;99349.41;5032911;28;20236;-77
2023/06/01 05:27:48;;;;;;;6.77;3.50;;;;;;;16.23;100.00;99349.56;5020868;28;20238;-77
2023/06/01 05:30:16;;;;;;;6.83;3.50;;;;;;;16.44;100.00;99345.06;5021472;28;20208;-77
2023/06/01 05:32:44;;;;;;;8.13;3.30;;;;;;;16.65;100.00;99342.34;5030660;28;20226;-77
2023/06/01 05:35:13;;;;;;;8.23;3.57;;;;;;;16.38;100.00;99345.56;5031760;28;20221;-77
2023/06/01 05:37:41;;;;;;;6.57;3.03;;;;;;;16.46;100.00;99351.13;5028960;28;20198;-77
2023/06/01 05:40:16;;;;;;;6.17;3.17;;;;;;;16.71;100.00;99352.56;5028029;28;20194;-77
2023/06/01 05:42:44;;;;;;;6.27;3.30;;;;;;;16.59;100.00;99349.06;5022948;28;20276;-77
2023/06/01 05:45:12;;;;;;;8.40;3.50;;;;;;;16.56;100.00;99360.03;5028507;28;20206;-78
2023/06/01 05:47:40;;;;;;;6.07;2.93;;;;;;;16.66;100.00;99359.25;5031136;28;20216;-77
2023/06/01 05:50:10;;;;;;;7.40;3.30;;;;;;;16.84;100.00;99353.19;5024109;28;20233;-77
2023/06/01 05:52:42;;;;;;;8.17;3.00;;;;;;;16.79;100.00;99357.25;5029041;28;20249;-77
2023/06/01 05:55:10;;;;;;;5.10;2.90;;;;;;;17.00;100.00;99352.72;5029900;28;20714;-78
2023/06/01 05:57:41;;;;;;;3.90;2.70;;;;;;;17.17;100.00;99357.41;5025679;28;20194;-77
2023/06/01 06:00:11;;;;;;;6.70;3.07;;;;;;;17.09;100.00;99351.91;5030306;28;20194;-77
2023/06/01 06:02:39;;;;;;;4.80;2.73;;;;;;;17.22;100.00;99364.22;5028437;28;20198;-78
2023/06/01 06:05:09;;;;;;;5.10;2.43;;;;;;;17.21;100.00;99366.03;5025989;28;20217;-77
2023/06/01 06:07:37;;;;;;;8.10;2.93;;;;;;;17.34;100.00;99350.56;5031473;28;20207;-77
2023/06/01 06:10:06;;;;;;;6.73;3.00;;;;;;;17.19;100.00;99351.97;5029734;28;20281;-77
2023/06/01 06:12:35;;;;;;;7.40;2.70;;;;;;;17.45;100.00;99347.78;5027958;28;20217;-77
2023/06/01 06:15:08;;;;;;;6.90;3.00;;;;;;;17.56;100.00;99345.97;5021722;28;20201;-77
2023/06/01 06:17:38;;;;;;;6.20;2.70;;;;;;;17.64;100.00;99346.97;5025609;28;20212;-77
2023/06/01 06:20:08;;;;;;;6.70;3.10;;;;;;;17.71;100.00;99337.44;5025523;28;20205;-77
2023/06/01 06:22:36;;;;;;;4.23;2.77;;;;;;;17.78;100.00;99348.47;5029936;28;20189;-77
2023/06/01 06:25:06;;;;;;;8.50;3.00;;;;;;;17.99;100.00;99342.97;5031661;28;20208;-77
2023/06/01 06:27:34;;;;;;;6.97;2.57;;;;;;;18.05;100.00;99330.81;5029228;28;20204;-77
2023/06/01 06:30:03;;;;;;;5.67;2.67;;;;;;;18.26;100.00;99334.22;5030933;28;20281;-77
2023/06/01 06:32:34;;;;;;;5.97;2.80;;;;;;;18.23;100.00;99340.69;5029315;28;20210;-77
2023/06/01 06:35:03;;;;;;;6.53;2.80;;;;;;;18.21;100.00;99336.47;5026305;28;20612;-77
2023/06/01 06:37:31;;;;;;;4.97;2.40;;;;;;;18.39;100.00;99336.59;5028928;28;20198;-77
2023/06/01 06:40:00;;;;;;;8.07;2.77;;;;;;;18.51;100.00;99332.75;5027174;28;20692;-78
2023/06/01 06:42:29;;;;;;;9.20;2.73;;;;;;;18.59;100.00;99338.25;5028367;28;20263;-78
2023/06/01 06:44:58;;;;;;;7.47;3.00;;;;;;;18.60;100.00;99338.09;5027560;28;20280;-78
2023/06/01 06:47:26;;;;;;;8.73;3.10;;;;;;;18.70;100.00;99332.75;5023814;28;20202;-78
2023/06/01 06:49:56;;;;;;;7.40;2.90;;;;;;;18.88;100.00;99331.00;5019629;28;20247;-78
2023/06/01 06:52:25;;;;;;;7.33;3.10;;;;;;;18.98;100.00;99339.00;5020688;28;20244;-77
2023/06/01 06:54:53;;;;;;;8.77;2.80;;;;;;;19.02;100.00;99339.56;5026350;28;20232;-78
2023/06/01 06:57:22;;;;;;;6.90;2.90;;;;;;;19.05;100.00;99340.13;4970575;28;20251;-78
2023/06/01 06:59:50;;;;;;;5.57;3.00;;;;;;;19.16;100.00;99350.66;4968990;28;20192;-77
2023/06/01 07:02:19;;;;;;;7.30;2.70;;;;;;;19.15;100.00;99345.44;4964564;28;20210;-78
2023/06/01 07:04:48;;;;;;;11.60;2.97;;;;;;;19.42;100.00;99349.97;4960430;28;20203;-78
2023/06/01 07:07:18;;;;;;;8.30;2.70;;;;;;;19.24;100.00;99354.47;4964060;28;20218;-78
2023/06/01 07:09:46;;;;;;;7.73;2.80;;;;;;;19.35;100.00;99352.41;4970280;28;20200;-78
2023/06/01 07:12:14;;;;;;;5.10;2.77;;;;;;;19.38;100.00;99349.41;4969717;28;20260;-77
2023/06/01 07:14:43;;;;;;;7.97;2.90;;;;;;;19.40;100.00;99351.97;4979958;28;20196;-78
2023/06/01 07:17:11;;;;;;;10.30;3.00;;;;;;;19.50;100.00;99352.78;5023504;28;20278;-78
2023/06/01 07:19:39;;;;;;;4.43;2.50;;;;;;;19.77;100.00;99351.06;5028130;28;20198;-78
2023/06/01 07:22:08;;;;;;;5.53;3.13;;;;;;;19.76;100.00;99358.28;5028331;28;20202;-78
2023/06/01 07:24:38;;;;;;;10.60;3.40;;;;;;;19.73;100.00;99353.22;5029992;28;20197;-78
2023/06/01 07:27:07;;;;;;;9.70;2.87;;;;;;;19.93;100.00;99351.22;5033452;28;20259;-78
2023/06/01 07:29:36;;;;;;;5.53;2.80;;;;;;;20.14;100.00;99350.94;4996005;28;20208;-78
2023/06/01 07:32:07;;;;;;;7.75;2.70;;;;;;;20.26;100.00;99349.69;5026962;28;20220;-78
2023/06/01 07:34:35;;;;;;;5.30;2.60;;;;;;;20.25;100.00;99338.06;5028365;28;20197;-77
2023/06/01 07:37:04;;;;;;;6.33;3.10;;;;;;;20.29;100.00;99344.00;5026468;28;20209;-78
2023/06/01 07:39:45;;;;;;;8.40;2.92;;;;;;;20.49;100.00;99342.84;5027517;28;20266;-77
2023/06/01 07:42:14;;;;;;;7.83;2.90;;;;;;;20.27;100.00;99348.72;5030732;28;20273;-78
2023/06/01 07:44:42;;;;;;;10.43;2.80;;;;;;;20.49;100.00;99356.31;5021965;28;20198;-78
2023/06/01 07:47:11;;;;;;;4.88;2.67;;;;;;;20.41;100.00;99348.13;5026626;28;20212;-77
2023/06/01 07:49:39;;;;;;;7.70;2.90;;;;;;;20.78;100.00;99349.78;5029511;28;20221;-78
2023/06/01 07:52:09;;;;;;;10.32;3.03;;;;;;;20.82;100.00;99341.22;5025660;28;20222;-78
2023/06/01 07:54:38;;;;;;;5.95;2.80;;;;;;;20.95;100.00;99345.34;5033041;28;20277;-78
2023/06/01 07:57:09;;;;;;;10.20;2.80;;;;;;;21.09;100.00;99350.13;5023772;28;20225;-78
2023/06/01 07:59:37;;;;;;;10.77;2.80;;;;;;;21.30;100.00;99339.81;5029339;28;20204;-78
2023/06/01 08:02:10;;;;;;;5.45;2.80;;;;;;;21.42;100.00;99341.22;5023158;28;20197;-78
2023/06/01 08:04:39;;;;;;;7.28;2.60;;;;;;;21.48;100.00;99336.16;5027209;28;20289;-78
2023/06/01 08:07:08;;;;;;;7.72;2.58;;;;;;;21.79;100.00;99333.72;5026124;28;20201;-78
2023/06/01 08:09:38;;;;;;;7.70;2.60;;;;;;;21.68;100.00;99337.56;5025431;28;20202;-78
2023/06/01 08:12:08;;;;;;;7.78;2.70;;;;;;;21.97;100.00;99329.03;5026150;28;20699;-78
2023/06/01 08:14:37;;;;;;;7.90;2.97;;;;;;;21.83;99.87;99327.84;5033198;28;20198;-78
2023/06/01 08:17:06;;;;;;;7.00;2.92;;;;;;;21.94;98.56;99329.38;5023932;28;20217;-78
2023/06/01 08:19:36;;;;;;;7.43;2.92;;;;;;;22.36;98.11;99314.91;5021365;28;20289;-78
2023/06/01 08:22:05;;;;;;;8.30;2.60;;;;;;;22.32;96.04;99311.72;5028452;28;20300;-78
2023/06/01 08:24:35;;;;;;;5.18;2.50;;;;;;;22.38;93.13;99310.19;5025994;28;20202;-78
2023/06/01 08:27:18;;;;;;;5.00;2.63;;;;;;;22.34;89.66;99320.47;5021804;28;20229;-78
2023/06/01 08:29:51;;;;;;;10.10;2.70;;;;;;;22.57;88.80;99317.91;5025805;28;20221;-78
2023/06/01 08:32:22;;;;;;;6.90;2.80;;;;;;;22.72;91.16;99308.13;5031300;28;20212;-78
2023/06/01 08:34:50;;;;;;;4.93;2.45;;;;;;;22.87;88.27;99300.16;5029423;28;20228;-78
2023/06/01 08:37:19;;;;;;;3.88;2.50;;;;;;;22.53;86.39;99303.09;5028403;28;20208;-78
2023/06/01 08:39:47;;;;;;;6.10;2.60;;;;;;;22.61;88.64;99303.06;5026778;28;20202;-78
2023/06/01 08:42:26;;;;;;;7.95;2.75;;;;;;;22.83;83.37;99305.03;4998377;28;20284;-78
2023/06/01 08:44:55;;;;;;;6.03;2.55;;;;;;;23.08;81.41;99299.59;5028545;28;20289;-79
2023/06/01 08:47:26;;;;;;;6.97;2.60;;;;;;;23.09;85.71;99296.72;5028833;28;20205;-78
2023/06/01 08:49:57;;;;;;;7.78;2.70;;;;;;;23.09;85.38;99298.59;5028366;28;20220;-79
2023/06/01 08:52:28;;;;;;;3.92;2.53;;;;;;;23.16;81.32;99291.44;5027060;28;20221;-79
2023/06/01 08:54:59;;;;;;;5.53;2.30;;;;;;;23.26;76.58;99291.22;5024475;28;20661;-78
2023/06/01 08:57:29;;;;;;;7.03;2.63;;;;;;;23.53;76.89;99289.91;5025922;28;20276;-78
2023/06/01 08:59:58;;;;;;;5.00;2.65;;;;;;;23.49;78.73;99292.13;5029348;28;20211;-79
2023/06/01 09:02:28;;;;;;;5.70;2.55;;;;;;;23.81;74.97;99292.97;5025617;28;20260;-79
2023/06/01 09:04:58;;;;;;;4.40;2.80;;;;;;;23.77;72.93;99283.56;5020821;28;20213;-78
2023/06/01 09:07:27;;;;;;;7.28;2.80;;;;;;;23.96;69.90;99288.47;5028791;28;20667;-78
2023/06/01 09:09:56;;;;;;;7.03;2.45;;;;;;;23.72;73.67;99277.81;5028446;28;20204;-77
2023/06/01 09:12:28;;;;;;;3.90;2.40;;;;;;;23.90;77.11;99276.50;5021615;28;20260;-78
2023/06/01 09:15:11;;;;;;;9.75;2.90;;;;;;;23.80;67.38;99273.19;5024512;28;20225;-78
2023/06/01 09:17:41;;;;;;;5.90;2.30;;;;;;;24.15;65.12;99277.16;5027174;28;20194;-79
2023/06/01 09:20:13;;;;;;;5.10;2.83;;;;;;;24.08;62.81;99270.78;5028611;28;20209;-79
2023/06/01 09:22:42;;;;;;;6.80;2.55;;;;;;;23.97;62.69;99273.94;5029383;28;20253;-78
2023/06/01 09:25:13;;;;;;;8.00;2.50;;;;;;;24.34;59.69;99261.47;5027028;28;20220;-78
2023/06/01 09:27:47;;;;;;;4.63;2.17;;;;;;;24.45;55.94;99264.56;5027517;28;20299;-78
2023/06/01 09:30:17;;;;;;;4.97;2.20;;;;;;;24.25;59.69;99266.06;5028539;28;20240;-78
2023/06/01 09:32:50;;;;;;;5.57;2.58;;;;;;;24.12;64.52;99263.13;5024854;28;20208;-78
2023/06/01 09:35:38;;;;;;;4.07;2.17;;;;;;;24.57;54.71;99262.22;5029122;28;20252;-78
2023/06/01 09:38:06;;;;;;;3.95;2.28;;;;;;;24.58;54.54;99263.91;5024826;28;20193;-79
2023/06/01 09:40:35;;;;;;;5.18;2.17;;;;;;;24.66;52.41;99266.53;5030052;28;20296;-78
2023/06/01 09:43:19;;;;;;;7.00;2.33;;;;;;;24.84;55.11;99256.16;5026703;28;20210;-78
2023/06/01 09:46:04;;;;;;;7.78;2.08;;;;;;;24.91;53.93;99252.72;5029527;28;20289;-78
2023/06/01 09:48:33;;;;;;;6.13;2.30;;;;;;;24.96;51.29;99256.53;5031110;28;20567;-78
2023/06/01 09:51:01;;;;;;;3.95;2.00;;;;;;;24.77;46.54;99254.38;5027405;28;20228;-78
2023/06/01 09:53:41;;;;;;;3.97;2.28;;;;;;;24.73;48.01;99244.97;5032595;28;20304;-78
2023/06/01 09:56:09;;;;;;;8.05;2.63;;;;;;;25.36;48.60;99244.34;5029084;28;20204;-79
2023/06/01 09:58:40;;;;;;;3.58;2.45;;;;;;;25.55;48.31;99242.88;5027290;28;20202;-79
2023/06/01 10:01:12;;;;;;;3.13;1.98;;;;;;;25.46;50.45;99244.03;5027932;28;20193;-78
2023/06/01 10:03:43;;;;;;;6.00;2.50;;;;;;;25.32;47.83;99245.75;5023179;28;20201;-78
2023/06/01 10:06:13;;;;;;;4.28;2.30;;;;;;;25.86;49.09;99237.16;5032185;28;20212;-78
2023/06/01 10:08:42;;;;;;;3.53;2.00;;;;;;;26.11;46.85;99232.19;5032006;28;20707;-78
2023/06/01 10:11:11;;;;;;;7.40;2.33;;;;;;;26.24;46.27;99236.88;5029466;28;20198;-79
2023/06/01 10:13:39;;;;;;;6.45;2.38;;;;;;;26.36;47.80;99229.03;5031859;28;20225;-79
2023/06/01 10:16:08;;;;;;;4.43;2.20;;;;;;;26.46;46.14;99230.41;5031884;28;20212;-78
2023/06/01 10:18:40;;;;;;;8.35;2.20;;;;;;;26.66;44.11;99230.53;5028985;28;20198;-78
2023/06/01 10:21:09;;;;;;;3.78;2.40;;;;;;;26.70;44.21;99234.50;5032808;28;20228;-78
2023/06/01 10:23:38;;;;;;;3.38;1.85;;;;;;;27.12;41.20;99223.66;5032088;28;20269;-79
2023/06/01 10:26:12;;;;;;;4.13;2.10;;;;;;;27.21;38.48;99225.97;5034572;28;20226;-78
2023/06/01 10:28:41;;;;;;;3.30;2.25;;;;;;;27.43;39.32;99223.97;5028230;28;20193;-78
2023/06/01 10:31:38;;;;;;;5.60;2.22;;;;;;;27.42;44.83;99214.16;5034745;28;20225;-78
2023/06/01 10:34:09;;;;;;;4.50;2.28;;;;;;;27.27;44.51;99206.13;5030235;28;20251;-78
2023/06/01 10:37:20;;;;;;;2.60;2.08;;;;;;;27.32;43.20;99208.25;5029471;28;20645;-79
2023/06/01 10:39:48;;;;;;;3.78;2.10;;;;;;;27.32;41.68;99208.25;4992693;28;20191;-79
2023/06/01 10:42:39;;;;;;;3.25;2.20;;;;;;;27.79;42.06;99211.91;5025253;28;20205;-78
2023/06/01 10:45:24;;;;;;;5.30;2.00;;;;;;;27.72;42.52;99211.94;5015300;28;20194;-78
2023/06/01 10:47:54;;;;;;;3.38;2.25;;;;;;;27.15;43.07;99193.34;5016602;28;20232;-78
2023/06/01 10:50:24;;;;;;;4.40;2.20;;;;;;;27.55;42.28;99199.72;5028181;28;20198;-78
2023/06/01 10:52:54;;;;;;;5.72;2.30;;;;;;;28.46;39.61;99189.91;4965719;28;20311;-79
2023/06/01 10:55:26;;;;;;;5.00;2.63;;;;;;;28.35;40.68;99193.28;4970093;28;20311;-79
2023/06/01 10:58:22;;;;;;;3.55;2.20;;;;;;;27.25;41.62;99191.91;4970436;28;20200;-78
2023/06/01 11:00:52;;;;;;;4.53;2.28;;;;;;;28.36;38.85;99191.41;4960603;28;20204;-78
2023/06/01 11:03:45;;;;;;;4.72;2.10;;;;;;;28.75;38.18;99185.84;4964348;28;20295;-78
2023/06/01 11:06:38;;;;;;;5.07;2.40;;;;;;;28.57;39.17;99180.28;4970728;28;20205;-78
2023/06/01 11:09:10;;;;;;;3.88;2.25;;;;;;;28.86;40.09;99184.38;4969242;28;20207;-78
2023/06/01 11:11:59;;;;;;;3.97;2.42;;;;;;;28.78;42.52;99180.00;5017004;28;20225;-78
2023/06/01 11:14:30;;;;;;;3.78;2.40;;;;;;;28.75;41.20;99179.56;5021079;28;20222;-78
2023/06/01 11:17:28;;;;;;;4.32;2.20;;;;;;;28.49;42.95;99170.44;5026385;28;20641;-78
2023/06/01 11:20:05;;;;;;;8.10;2.28;;;;;;;28.71;39.11;99176.44;5029707;28;20186;-77
2023/06/01 11:22:38;;;;;;;4.70;2.28;;;;;;;28.93;39.69;99174.28;5030873;28;20712;-78
2023/06/01 11:25:08;;;;;;;2.88;2.05;;;;;;;29.34;35.86;99164.88;5026869;28;20205;-78
2023/06/01 11:27:37;;;;;;;4.63;2.30;;;;;;;28.73;39.60;99166.16;5026255;28;20209;-78
2023/06/01 11:30:08;;;;;;;4.80;2.13;;;;;;;29.01;39.95;99163.13;5030397;28;20198;-79
2023/06/01 11:32:40;;;;;;;5.53;2.60;;;;;;;29.54;40.08;99159.31;5024408;28;20202;-78
2023/06/01 11:35:20;;;;;;;4.32;2.10;;;;;;;29.38;39.09;99157.91;5025727;28;20260;-78
2023/06/01 11:37:56;;;;;;;3.35;2.20;;;;;;;29.89;38.71;99154.19;5030375;28;20217;-78
2023/06/01 11:40:25;;;;;;;8.13;2.40;;;;;;;29.50;39.07;99152.59;5033200;28;20277;-78
2023/06/01 11:42:59;;;;;;;2.88;1.80;;;;;;;29.64;34.70;99146.00;5028334;28;20197;-78
2023/06/01 11:45:30;;;;;;;3.85;2.20;;;;;;;29.12;37.32;99150.69;5033379;28;20225;-78
2023/06/01 11:47:59;;;;;;;3.63;2.35;;;;;;;29.80;36.13;99141.84;5023735;28;20671;-79